Aviation Digital Data Service (ADDS)

Output produced by METARs form (1709 UTC 26 June 2016)
found at http://www.aviationweather.gov/adds/metars/
 
KDUJ 261653Z AUTO VRB06KT 10SM SCT038 BKN047 BKN055 27/17 A3020 RMK AO2 SLP214 T02720172
KDUJ 261553Z AUTO VRB06KT 10SM FEW032 SCT055 27/18 A3021 RMK AO2 SLP217 T02670178
KDUJ 261453Z AUTO 17004KT 10SM CLR 24/18 A3021 RMK AO2 SLP217 T02440178 51001
KDUJ 261353Z AUTO 16005KT 10SM CLR 23/17 A3021 RMK AO2 SLP217 T02280167
KDUJ 261253Z AUTO 17004KT 10SM CLR 21/16 A3021 RMK AO2 SLP219 T02110161
KDUJ 261153Z AUTO 13005KT 9SM CLR 18/16 A3021 RMK AO2 SLP218 T01830156 10183 20150 53003
KDUJ 261053Z AUTO 10005KT 4SM BR CLR 16/15 A3020 RMK AO2 SLP216 T01610150
KDUJ 260953Z AUTO 13006KT 6SM BR CLR 16/15 A3020 RMK AO2 SLP213 T01610150
KDUJ 260853Z AUTO 10004KT 4SM BR CLR 16/14 A3020 RMK AO2 SLP215 T01560144 56010
KDUJ 260753Z AUTO 12004KT 10SM CLR 17/15 A3020 RMK AO2 SLP213 T01670150
KDUJ 260653Z AUTO 15005KT 10SM CLR 18/15 A3021 RMK AO2 SLP217 T01780150
KDUJ 260553Z AUTO 00000KT 10SM CLR 18/15 A3023 RMK AO2 SLP225 T01780150 10244 20178 53013
KDUJ 260453Z AUTO 18003KT 10SM CLR 19/15 A3021 RMK AO2 SLP218 T01890150 402830133
KDUJ 260353Z AUTO 18005KT 10SM CLR 19/16 A3020 RMK AO2 SLP215 T01940156
KDUJ 260253Z AUTO 16005KT 10SM CLR 21/16 A3019 RMK AO2 SLP211 T02060156 50003
KDUJ 260153Z AUTO 14004KT 10SM FEW050 22/16 A3019 RMK AO2 SLP213 T02170156
KDUJ 260053Z AUTO 14004KT 10SM CLR 23/16 A3019 RMK AO2 SLP211 T02280161
KDUJ 252353Z AUTO 13005KT 10SM CLR 24/16 A3018 RMK AO2 SLP210 T02440156 10283 20244 53001
KDUJ 252253Z AUTO 15005KT 10SM CLR 26/16 A3018 RMK AO2 SLP209 T02560156
KDUJ 252153Z AUTO VRB03KT 10SM FEW070 27/15 A3018 RMK AO2 SLP208 T02670150
KDUJ 252053Z AUTO 19006KT 10SM FEW055 27/14 A3018 RMK AO2 SLP207 T02670144 58005
KDUJ 251953Z AUTO 10SM BKN050 28/14 A3019 RMK AO2 SLP212 T02830144
KDUJ 251853Z AUTO 08005KT 10SM BKN050 BKN065 27/14 A3020 RMK AO2 SLP214 T02670144
KDUJ 251753Z AUTO 13005KT 10SM FEW047 SCT065 26/14 A3019 RMK AO2 SLP213 T02610144 10267 20161 58008
KDUJ 251653Z AUTO 00000KT 10SM FEW041 25/15 A3021 RMK AO2 SLP220 T02500150
KDUJ 251553Z AUTO 10SM BKN038 BKN047 25/16 A3022 RMK AO2 SLP222 T02500156
KDUJ 251453Z AUTO 11004KT 10SM CLR 23/17 A3022 RMK AO2 SLP223 T02330172 50006
KDUJ 251353Z AUTO 12004KT 10SM BKN050 21/16 A3023 RMK AO2 SLP226 T02060161
KDUJ 251253Z AUTO 15005KT 10SM CLR 18/16 A3022 RMK AO2 SLP224 T01780156
KDUJ 251153Z AUTO 09004KT 7SM CLR 17/14 A3020 RMK AO2 SLP217 T01670144 10167 20133 53011
KDUJ 251053Z AUTO 08006KT 3SM BR CLR 14/13 A3018 RMK AO2 SLP211 T01440133
KDUJ 250953Z AUTO 08006KT 3SM BR CLR 14/13 A3017 RMK AO2 SLP206 T01390128
KDUJ 250948Z AUTO 08005KT 2 1/2SM BR CLR 13/12 A3017 RMK AO2
KDUJ 250853Z AUTO 08004KT 7SM BKN042 OVC050 15/13 A3016 RMK AO2 SLP202 T01500133 53005
KDUJ 250753Z AUTO 00000KT 9SM CLR 16/13 A3014 RMK AO2 SLP197 T01560133
KDUJ 250653Z AUTO 09004KT 10SM CLR 15/13 A3014 RMK AO2 SLP195 T01500133
KDUJ 250553Z AUTO 08005KT 10SM CLR 16/13 A3014 RMK AO2 SLP197 T01560133 10228 20156 50006